Swansea — D5FD2 — position and weather

sailwx.info

Track history (hours):
 
Tides and Currents Weather Stations Pressure Air Temp Water Temp Dewpoint Dewpoint Depression Visibility Wind Speed Wind Dir Waves Ship Positions

Swansea

Last reported at 2018-Jan-21 01:01 UTC. Time now 2018-Jan-21 01:13 UTC.
Position N 37°55' E 024°33'.

Length 271 m; draft 14 m.

Type: Cargo ship. MMSI: 636016231.

Date/timePositionNaut miles runAvg speedWind from/ knotsBaromVisibWave heightAir tempDewpointWater temp
2018-Jan-21 01:01N 37°55' E 024°33'2014.2
2018-Jan-20 23:38N 38°10' E 024°49'314.0
2018-Jan-20 23:27N 38°12' E 024°51'614.2
2018-Jan-20 23:00N 38°17' E 024°56'1313.8
2018-Jan-20 22:01N 38°28' E 025°06'013.9
2018-Jan-20 22:00N 38°28' E 025°06'  
2018-Jan-12 09:03N 35°50' E 015°06'319.4
2018-Jan-12 08:54N 35°49' E 015°02'819.2
2018-Jan-12 08:30N 35°46' E 014°54'919.0
2018-Jan-12 08:00N 35°47' E 014°42'814.3
2018-Jan-12 07:28N 35°49' E 014°33'0 0.8
2018-Jan-12 07:00N 35°49' E 014°32'0 0.0
2018-Jan-12 06:30N 35°49' E 014°32'0 0.0
2018-Jan-11 23:06N 35°49' E 014°32'0 0.0
2018-Jan-11 22:57N 35°49' E 014°32'0 0.0
2018-Jan-11 22:30N 35°49' E 014°32'0 0.0
2018-Jan-11 21:54N 35°49' E 014°32'0 0.0
2018-Jan-11 21:27N 35°49' E 014°32'0 0.0
2018-Jan-11 20:24N 35°49' E 014°32'0 0.0
2018-Jan-11 20:00N 35°49' E 014°32'0 0.0
2018-Jan-11 11:18N 35°49' E 014°32'0 0.7
2018-Jan-11 10:58N 35°49' E 014°32'2 5.3
2018-Jan-11 10:30N 35°48' E 014°35'2 3.6
2018-Jan-11 10:00N 35°46' E 014°36'1 1.5
2018-Jan-11 09:30N 35°46' E 014°36'1 1.3
2018-Jan-11 09:00N 35°46' E 014°36'0 0.9
2018-Jan-11 08:30N 35°47' E 014°36'3 6.6
2018-Jan-11 08:00N 35°44' E 014°39'611.4
2018-Jan-11 07:30N 35°40' E 014°44'0 0.4
2018-Jan-11 06:59N 35°40' E 014°43'0 0.6
2018-Jan-11 06:30N 35°40' E 014°43'0 0.7
2018-Jan-11 06:00N 35°41' E 014°43'0 0.9
2018-Jan-11 05:30N 35°41' E 014°42'1 1.1
2018-Jan-11 05:00N 35°41' E 014°42'1 1.1
2018-Jan-11 04:31N 35°42' E 014°42'1 1.1
2018-Jan-11 04:00N 35°42' E 014°41'1 1.1
2018-Jan-11 03:29N 35°43' E 014°41'1 1.1
2018-Jan-11 03:00N 35°43' E 014°40'1 1.1
2018-Jan-11 02:29N 35°44' E 014°40'0 1.0
2018-Jan-11 02:00N 35°44' E 014°40'0 0.8
2018-Jan-11 01:30N 35°44' E 014°39'  
Track history (hours):
 
Tides and Currents Weather Stations Pressure Air Temp Water Temp Dewpoint Dewpoint Depression Visibility Wind Speed Wind Dir Waves Ship Positions

Swansea

Last reported at 2018-Jan-21 01:01 UTC. Time now 2018-Jan-21 01:13 UTC.
Position N 37°55' E 024°33'.

Length 271 m; draft 14 m.

Type: Cargo ship. MMSI: 636016231.

Date/timePositionNaut miles runAvg speedWind from/ knotsBaromVisibWave heightAir tempDewpointWater temp
2018-Jan-21 01:01N 37°55' E 024°33'2014.2
2018-Jan-20 23:38N 38°10' E 024°49'314.0
2018-Jan-20 23:27N 38°12' E 024°51'614.2
2018-Jan-20 23:00N 38°17' E 024°56'1313.8
2018-Jan-20 22:01N 38°28' E 025°06'013.9
2018-Jan-20 22:00N 38°28' E 025°06'  
2018-Jan-12 09:03N 35°50' E 015°06'319.4
2018-Jan-12 08:54N 35°49' E 015°02'819.2
2018-Jan-12 08:30N 35°46' E 014°54'919.0
2018-Jan-12 08:00N 35°47' E 014°42'814.3
2018-Jan-12 07:28N 35°49' E 014°33'0 0.8
2018-Jan-12 07:00N 35°49' E 014°32'0 0.0
2018-Jan-12 06:30N 35°49' E 014°32'0 0.0
2018-Jan-11 23:06N 35°49' E 014°32'0 0.0
2018-Jan-11 22:57N 35°49' E 014°32'0 0.0
2018-Jan-11 22:30N 35°49' E 014°32'0 0.0
2018-Jan-11 21:54N 35°49' E 014°32'0 0.0
2018-Jan-11 21:27N 35°49' E 014°32'0 0.0
2018-Jan-11 20:24N 35°49' E 014°32'0 0.0
2018-Jan-11 20:00N 35°49' E 014°32'0 0.0
2018-Jan-11 11:18N 35°49' E 014°32'0 0.7
2018-Jan-11 10:58N 35°49' E 014°32'2 5.3
2018-Jan-11 10:30N 35°48' E 014°35'2 3.6
2018-Jan-11 10:00N 35°46' E 014°36'1 1.5
2018-Jan-11 09:30N 35°46' E 014°36'1 1.3
2018-Jan-11 09:00N 35°46' E 014°36'0 0.9
2018-Jan-11 08:30N 35°47' E 014°36'3 6.6
2018-Jan-11 08:00N 35°44' E 014°39'611.4
2018-Jan-11 07:30N 35°40' E 014°44'0 0.4
2018-Jan-11 06:59N 35°40' E 014°43'0 0.6
2018-Jan-11 06:30N 35°40' E 014°43'0 0.7
2018-Jan-11 06:00N 35°41' E 014°43'0 0.9
2018-Jan-11 05:30N 35°41' E 014°42'1 1.1
2018-Jan-11 05:00N 35°41' E 014°42'1 1.1
2018-Jan-11 04:31N 35°42' E 014°42'1 1.1
2018-Jan-11 04:00N 35°42' E 014°41'1 1.1
2018-Jan-11 03:29N 35°43' E 014°41'1 1.1
2018-Jan-11 03:00N 35°43' E 014°40'1 1.1
2018-Jan-11 02:29N 35°44' E 014°40'0 1.0
2018-Jan-11 02:00N 35°44' E 014°40'0 0.8
2018-Jan-11 01:30N 35°44' E 014°39'  

Dump ship's entire track history